x

Port Orford - 15 Nm West Of Port Orford, Or (46015) Wave Buoy

3:50am - Tue 26th Jul 2016 All times are PDT. -7 hours from GMT.

  • Sig Wave height 6.6ft
  • Swell Direction
  • Peak Period 10s
  • Average Period 6s
  • Wind
    18mph, 20mph gusts
  • Sea Temp 51°f
  • Air Temp 55°f
  • Sea Pressure 1019.9mb
  • Port Orford - 15 Nm West Of Port Orford, Or
  • Port Orford - 15 Nm West Of Port Orford, Or

More Historic Weather Station data

Upgrade to MSW Pro to gain access to the past 30 days of data for over 8000 Wavebouys and Weather Stations around the globe.

Join Pro

Comparision Forecast

View Surf forecast
   
Tue 07/26 3:50am 6.5ft 10s 6s 18 20 mph 1019.9mb 51f 55f
2:50am 6ft 7s 6s 18 22 mph 1019.9mb 51f 55f
1:50am 6ft 7s 6s 18 22 mph 1019.8mb 51f 56f
Mon 07/25 11:50pm 6ft 7s 6s 18 22 mph 1020.3mb 51f 55f
10:50pm 5ft 7s 5s 20 22 mph 1020.5mb 51f 55f
9:50pm 5ft 7s 5s 16 18 mph 1020.5mb 51f 55f
8:50pm 5.5ft 7s 5s 18 20 mph 1019.9mb 52f 56f
7:50pm 5ft 7s 5s 18 20 mph 1019.7mb 52f 56f
6:50pm 5ft 7s 5s 18 20 mph 1019.2mb 52f 56f
5:50pm 5ft 7s 5s 20 22 mph 1019.4mb 52f 56f
4:50pm 4.5ft 7s 5s 20 22 mph 1019.3mb 51f 57f
3:50pm 4.5ft 7s 5s 16 18 mph 1019.4mb 52f 55f
2:50pm 4.5ft 7s 5s 18 20 mph 1019.7mb 52f 55f
1:50pm 4.5ft 6s 5s 16 18 mph 1019.7mb 52f 55f
12:50pm 5ft 7s 5s 18
mph
1019.9mb 51f 55f
10:50am 5ft 7s 6s 16 18 mph 1019.9mb 51f 55f
9:50am  -   -   -  13 16 mph 1019.9mb 51f 54f
8:50am 5ft 7s 6s 13 16 mph 1019.6mb 51f 54f
7:50am 5ft 7s 6s 13 16 mph 1019.4mb 51f 54f
6:50am 5ft 7s 6s 13 16 mph 1019.3mb 51f 54f
5:50am 4.5ft 7s 6s 13 16 mph 1019mb 51f 55f
4:50am 5ft 6s 6s 16 18 mph 1018.9mb 51f 55f
3:50am 5ft 7s 6s 13 16 mph 1018.7mb 51f 55f
2:50am 5ft 7s 6s 16 18 mph 1018.5mb 51f 56f
1:50am  -   -   -  18 22 mph 1018.5mb 51f 56f
12:50am 5ft 6s 6s 18 20 mph 1018.6mb 51f 56f
Sun 07/24 11:50pm 4.5ft 7s 6s 18 22 mph 1018.3mb 51f 56f
10:50pm 5ft 6s 5s 16 18 mph 1018.4mb 51f 55f
9:50pm 5ft 6s 5s 16 18 mph 1018.2mb 51f 55f
8:50pm 5ft 7s 5s 18 20 mph 1017.8mb 51f 55f
7:50pm 5ft 6s 5s 18 22 mph 1017.6mb 51f 56f
6:50pm 4.5ft 6s 5s 18 20 mph 1017.5mb 51f 56f
5:50pm 4.5ft 6s 5s 16 20 mph 1017.4mb 51f 56f
4:50pm 4.5ft 6s 5s 18 22 mph 1017.4mb 51f 56f
3:50pm 4.5ft 6s 5s 20 22 mph 1017.3mb 51f 56f
2:50pm 5ft 7s 5s 20 22 mph 1017.5mb 51f 56f
1:50pm 5ft 6s 5s 18 20 mph 1017.9mb 51f 55f
12:50pm 5ft 6s 5s 22 25 mph 1017.9mb 51f 56f
11:50am 5ft 8s 5s 25 27 mph 1017.9mb 51f 56f
10:50am 5.5ft 7s 5s 22 27 mph 1018.1mb 51f 56f
9:50am 5ft 7s 5s 22 27 mph 1018.2mb 51f 56f
8:50am 6ft 7s 5s 22 27 mph 1018.2mb 51f 56f
7:50am 6ft 7s 5s 22 27 mph 1018mb 51f 55f
6:50am 6ft 7s 5s 22 27 mph 1017.8mb 50f 55f
5:50am 6ft 7s 5s 22 27 mph 1017.6mb 50f 55f
4:50am 6ft 7s 5s 22 25 mph 1017.7mb 50f 55f
3:50am 5.5ft 6s 6s 20 25 mph 1017.6mb 51f 55f
2:50am 6ft 7s 6s 20 22 mph 1018.3mb 51f 55f
1:50am 6ft 7s 6s 16 18 mph 1019.1mb 51f 55f
12:50am 6ft 7s 6s 16 20 mph 1019.6mb 51f 55f
Sat 07/23 11:50pm 6ft 7s 6s 16 18 mph 1020.2mb 51f 55f
10:50pm 6ft 7s 6s 11 13 mph 1020.9mb 52f 54f
9:50pm 6ft 7s 6s 13 16 mph 1021mb 52f 55f
8:50pm 6ft 7s 6s 18 20 mph 1020.8mb 52f 56f
7:50pm 5.5ft 6s 5s 18 22 mph 1020.6mb 52f 57f
6:50pm 5ft 6s 5s 22 27 mph 1020.6mb 52f 57f
5:50pm 5ft 6s 5s 22 27 mph 1021.1mb 52f 58f
4:50pm 5ft 6s 5s 20 22 mph 1021.9mb 53f 58f
3:50pm 5ft 6s 5s 20 22 mph 1022.1mb 52f 58f
2:50pm 4.5ft 5s 5s 22 25 mph 1022.2mb 53f 58f
1:50pm 4.5ft 6s 5s 20 22 mph 1022.5mb 53f 57f
12:50pm 4ft 6s 5s 22 25 mph 1022.8mb 53f 57f
11:50am 4.5ft 5s 5s 20 25 mph 1023.2mb 53f 57f
10:50am 4.5ft 6s 5s 22 25 mph 1023.4mb 53f 56f
9:50am 4.5ft 5s 5s 18 20 mph 1023.8mb 52f 55f
8:50am 4.5ft 16s 5s 22 25 mph 1023.5mb 52f 56f
7:50am 4.5ft 6s 5s 22 25 mph 1023.3mb 52f 56f
6:50am 4.5ft 6s 5s 18 20 mph 1023.3mb 52f 56f
5:50am 4.5ft 5s 5s 18 20 mph 1022.9mb 52f 56f
4:50am 4ft 6s 5s 16 18 mph 1023.1mb 53f 56f
3:50am 4ft 8s 6s 16 18 mph 1023.3mb 53f 56f
2:50am 4.5ft 6s 6s 11 13 mph 1023.7mb 53f 55f
1:50am 4ft 8s 5s 16 18 mph 1024mb 53f 56f
12:50am 3.5ft 5s 5s 16 18 mph 1024.5mb 53f 56f
Fri 07/22 11:50pm 3.5ft 5s 5s 18
mph
1024.9mb 53f 56f
10:50pm 4ft 5s 5s 16 18 mph 1025.5mb 54f 56f
9:50pm 4.5ft 8s 5s 16 18 mph 1025.4mb 54f 57f
8:50pm 4ft 8s 5s 18 20 mph 1025.2mb 54f 57f
7:50pm 4ft 8s 5s 18 20 mph 1025.2mb 55f 58f
6:50pm 3.5ft 8s 5s 18 22 mph 1025.2mb 55f 58f
5:50pm 3.5ft 15s 6s 18 20 mph 1025.4mb 55f 59f
4:50pm 3.5ft 8s 5s 16 18 mph 1025.6mb 55f 59f
3:50pm 3.5ft 15s 6s 18 20 mph 1025.6mb 55f 59f
2:50pm 3.5ft 9s 6s 18 20 mph 1025.6mb 55f 59f
1:50pm 3.5ft 9s 6s 18 20 mph 1025.8mb 56f 59f
12:50pm 3.5ft 8s 6s 16
mph
1026mb 55f 58f